sensor_id;sensor_type;location;lat;lon;timestamp;temperature;humidity
8676;DHT22;4375;52.486;13.424;2023-04-25T00:00:22;9.50;99.90
8676;DHT22;4375;52.486;13.424;2023-04-25T00:02:48;9.40;99.90
8676;DHT22;4375;52.486;13.424;2023-04-25T00:05:14;9.40;99.90
8676;DHT22;4375;52.486;13.424;2023-04-25T00:07:42;9.40;99.90
8676;DHT22;4375;52.486;13.424;2023-04-25T00:10:09;9.40;99.90
8676;DHT22;4375;52.486;13.424;2023-04-25T00:12:36;9.30;99.90
8676;DHT22;4375;52.486;13.424;2023-04-25T00:15:02;9.40;99.90
8676;DHT22;4375;52.486;13.424;2023-04-25T00:17:28;9.40;99.90
8676;DHT22;4375;52.486;13.424;2023-04-25T00:19:54;9.20;99.90
8676;DHT22;4375;52.486;13.424;2023-04-25T00:22:21;9.30;99.90
8676;DHT22;4375;52.486;13.424;2023-04-25T00:24:47;9.30;99.90
8676;DHT22;4375;52.486;13.424;2023-04-25T00:27:12;9.30;99.90
8676;DHT22;4375;52.486;13.424;2023-04-25T00:29:38;9.40;99.90
8676;DHT22;4375;52.486;13.424;2023-04-25T00:32:04;9.40;99.90
8676;DHT22;4375;52.486;13.424;2023-04-25T00:34:29;9.40;99.90
8676;DHT22;4375;52.486;13.424;2023-04-25T00:36:55;9.40;99.90
8676;DHT22;4375;52.486;13.424;2023-04-25T00:39:22;9.50;99.90
8676;DHT22;4375;52.486;13.424;2023-04-25T00:41:48;9.50;99.90
8676;DHT22;4375;52.486;13.424;2023-04-25T00:44:15;9.40;99.90
8676;DHT22;4375;52.486;13.424;2023-04-25T00:46:42;9.50;99.90
8676;DHT22;4375;52.486;13.424;2023-04-25T00:49:08;9.50;99.90
8676;DHT22;4375;52.486;13.424;2023-04-25T00:51:34;9.50;99.90
8676;DHT22;4375;52.486;13.424;2023-04-25T00:54:00;9.50;99.90
8676;DHT22;4375;52.486;13.424;2023-04-25T00:56:26;9.60;99.90
8676;DHT22;4375;52.486;13.424;2023-04-25T00:58:53;9.60;99.90
8676;DHT22;4375;52.486;13.424;2023-04-25T01:01:22;9.50;99.90
8676;DHT22;4375;52.486;13.424;2023-04-25T01:03:49;9.60;99.90
8676;DHT22;4375;52.486;13.424;2023-04-25T01:06:16;9.60;99.90
8676;DHT22;4375;52.486;13.424;2023-04-25T01:08:41;9.60;99.90
8676;DHT22;4375;52.486;13.424;2023-04-25T01:11:07;9.60;99.90
8676;DHT22;4375;52.486;13.424;2023-04-25T01:13:33;9.50;99.90
8676;DHT22;4375;52.486;13.424;2023-04-25T01:16:00;9.50;99.90
8676;DHT22;4375;52.486;13.424;2023-04-25T01:18:26;9.50;99.90
8676;DHT22;4375;52.486;13.424;2023-04-25T01:20:52;9.50;99.90
8676;DHT22;4375;52.486;13.424;2023-04-25T01:23:20;9.50;99.90
8676;DHT22;4375;52.486;13.424;2023-04-25T01:25:46;9.50;99.90
8676;DHT22;4375;52.486;13.424;2023-04-25T01:28:14;9.50;99.90
8676;DHT22;4375;52.486;13.424;2023-04-25T01:30:40;9.60;99.90
8676;DHT22;4375;52.486;13.424;2023-04-25T01:33:08;9.60;99.90
8676;DHT22;4375;52.486;13.424;2023-04-25T01:35:33;9.60;99.90
8676;DHT22;4375;52.486;13.424;2023-04-25T01:37:59;9.60;99.90
8676;DHT22;4375;52.486;13.424;2023-04-25T01:40:25;9.60;99.90
8676;DHT22;4375;52.486;13.424;2023-04-25T01:42:52;9.60;99.90
8676;DHT22;4375;52.486;13.424;2023-04-25T01:45:18;9.60;99.90
8676;DHT22;4375;52.486;13.424;2023-04-25T01:47:44;9.60;99.90
8676;DHT22;4375;52.486;13.424;2023-04-25T01:50:14;9.70;99.90
8676;DHT22;4375;52.486;13.424;2023-04-25T01:52:41;9.70;99.90
8676;DHT22;4375;52.486;13.424;2023-04-25T01:55:06;9.70;99.90
8676;DHT22;4375;52.486;13.424;2023-04-25T01:57:32;9.60;99.90
8676;DHT22;4375;52.486;13.424;2023-04-25T02:00:00;9.60;99.90
8676;DHT22;4375;52.486;13.424;2023-04-25T02:02:26;9.50;99.90
8676;DHT22;4375;52.486;13.424;2023-04-25T02:04:52;9.50;99.90
8676;DHT22;4375;52.486;13.424;2023-04-25T02:07:17;9.50;99.90
8676;DHT22;4375;52.486;13.424;2023-04-25T02:09:43;9.50;99.90
8676;DHT22;4375;52.486;13.424;2023-04-25T02:12:10;9.60;99.90
8676;DHT22;4375;52.486;13.424;2023-04-25T02:14:36;9.60;99.90
8676;DHT22;4375;52.486;13.424;2023-04-25T02:17:02;9.60;99.90
8676;DHT22;4375;52.486;13.424;2023-04-25T02:19:28;9.60;99.90
8676;DHT22;4375;52.486;13.424;2023-04-25T02:21:53;9.50;99.90
8676;DHT22;4375;52.486;13.424;2023-04-25T02:24:19;9.50;99.90
8676;DHT22;4375;52.486;13.424;2023-04-25T02:26:45;9.50;99.90
8676;DHT22;4375;52.486;13.424;2023-04-25T02:29:12;9.40;99.90
8676;DHT22;4375;52.486;13.424;2023-04-25T02:31:38;9.50;99.90
8676;DHT22;4375;52.486;13.424;2023-04-25T02:34:04;9.40;99.90
8676;DHT22;4375;52.486;13.424;2023-04-25T02:36:30;9.40;99.90
8676;DHT22;4375;52.486;13.424;2023-04-25T02:38:57;9.40;99.90
8676;DHT22;4375;52.486;13.424;2023-04-25T02:41:23;9.40;99.90
8676;DHT22;4375;52.486;13.424;2023-04-25T02:43:48;9.40;99.90
8676;DHT22;4375;52.486;13.424;2023-04-25T02:46:14;9.50;99.90
8676;DHT22;4375;52.486;13.424;2023-04-25T02:48:40;9.40;99.90
8676;DHT22;4375;52.486;13.424;2023-04-25T02:51:05;9.50;99.90
8676;DHT22;4375;52.486;13.424;2023-04-25T02:53:31;9.50;99.90
8676;DHT22;4375;52.486;13.424;2023-04-25T02:55:57;9.50;99.90
8676;DHT22;4375;52.486;13.424;2023-04-25T02:58:23;9.40;99.90
8676;DHT22;4375;52.486;13.424;2023-04-25T03:00:49;9.40;99.90
8676;DHT22;4375;52.486;13.424;2023-04-25T03:03:15;9.30;99.90
8676;DHT22;4375;52.486;13.424;2023-04-25T03:05:43;9.30;99.90
8676;DHT22;4375;52.486;13.424;2023-04-25T03:08:09;9.40;99.90
8676;DHT22;4375;52.486;13.424;2023-04-25T03:10:34;9.30;99.90
8676;DHT22;4375;52.486;13.424;2023-04-25T03:13:00;9.40;99.90
8676;DHT22;4375;52.486;13.424;2023-04-25T03:15:26;9.40;99.90
8676;DHT22;4375;52.486;13.424;2023-04-25T03:17:51;9.40;99.90
8676;DHT22;4375;52.486;13.424;2023-04-25T03:20:17;9.40;99.90
8676;DHT22;4375;52.486;13.424;2023-04-25T03:22:43;9.40;99.90
8676;DHT22;4375;52.486;13.424;2023-04-25T03:25:09;9.40;99.90
8676;DHT22;4375;52.486;13.424;2023-04-25T03:27:35;9.40;99.90
8676;DHT22;4375;52.486;13.424;2023-04-25T03:30:01;9.40;99.90
8676;DHT22;4375;52.486;13.424;2023-04-25T03:32:26;9.40;99.90
8676;DHT22;4375;52.486;13.424;2023-04-25T03:34:52;9.40;99.90
8676;DHT22;4375;52.486;13.424;2023-04-25T03:37:18;9.30;99.90
8676;DHT22;4375;52.486;13.424;2023-04-25T03:39:43;9.40;99.90
8676;DHT22;4375;52.486;13.424;2023-04-25T03:42:09;9.40;99.90
8676;DHT22;4375;52.486;13.424;2023-04-25T03:44:35;9.40;99.90
8676;DHT22;4375;52.486;13.424;2023-04-25T03:47:00;9.40;99.90
8676;DHT22;4375;52.486;13.424;2023-04-25T03:49:26;9.40;99.90
8676;DHT22;4375;52.486;13.424;2023-04-25T03:51:51;9.40;99.90
8676;DHT22;4375;52.486;13.424;2023-04-25T03:54:17;9.30;99.90
8676;DHT22;4375;52.486;13.424;2023-04-25T03:56:42;9.30;99.90
8676;DHT22;4375;52.486;13.424;2023-04-25T03:59:08;9.30;99.90
8676;DHT22;4375;52.486;13.424;2023-04-25T04:01:34;9.30;99.90
8676;DHT22;4375;52.486;13.424;2023-04-25T04:04:00;9.20;99.90
8676;DHT22;4375;52.486;13.424;2023-04-25T04:06:26;9.30;99.90
8676;DHT22;4375;52.486;13.424;2023-04-25T04:08:52;9.40;99.90
8676;DHT22;4375;52.486;13.424;2023-04-25T04:11:17;9.50;99.90
8676;DHT22;4375;52.486;13.424;2023-04-25T04:13:43;9.40;99.90
8676;DHT22;4375;52.486;13.424;2023-04-25T04:16:08;9.50;99.90
8676;DHT22;4375;52.486;13.424;2023-04-25T04:18:34;9.50;99.90
8676;DHT22;4375;52.486;13.424;2023-04-25T04:21:01;9.50;99.90
8676;DHT22;4375;52.486;13.424;2023-04-25T04:23:26;9.30;99.90
8676;DHT22;4375;52.486;13.424;2023-04-25T04:25:54;9.30;99.90
8676;DHT22;4375;52.486;13.424;2023-04-25T04:28:20;9.40;99.90
8676;DHT22;4375;52.486;13.424;2023-04-25T04:30:47;9.40;99.90
8676;DHT22;4375;52.486;13.424;2023-04-25T04:33:13;9.40;99.90
8676;DHT22;4375;52.486;13.424;2023-04-25T04:35:41;9.40;99.90
8676;DHT22;4375;52.486;13.424;2023-04-25T04:38:07;9.40;99.90
8676;DHT22;4375;52.486;13.424;2023-04-25T04:40:32;9.40;99.90
8676;DHT22;4375;52.486;13.424;2023-04-25T04:42:58;9.50;99.90
8676;DHT22;4375;52.486;13.424;2023-04-25T04:45:24;9.60;99.90
8676;DHT22;4375;52.486;13.424;2023-04-25T04:47:50;9.50;99.90
8676;DHT22;4375;52.486;13.424;2023-04-25T04:50:16;9.60;99.90
8676;DHT22;4375;52.486;13.424;2023-04-25T04:52:42;9.60;99.90
8676;DHT22;4375;52.486;13.424;2023-04-25T04:55:08;9.70;99.90
8676;DHT22;4375;52.486;13.424;2023-04-25T04:57:34;9.70;99.90
8676;DHT22;4375;52.486;13.424;2023-04-25T05:00:00;9.60;99.90
8676;DHT22;4375;52.486;13.424;2023-04-25T05:02:26;9.60;99.90
8676;DHT22;4375;52.486;13.424;2023-04-25T05:04:52;9.60;99.90
8676;DHT22;4375;52.486;13.424;2023-04-25T05:07:18;9.60;99.90
8676;DHT22;4375;52.486;13.424;2023-04-25T05:09:44;9.70;99.90
8676;DHT22;4375;52.486;13.424;2023-04-25T05:12:10;9.70;99.90
8676;DHT22;4375;52.486;13.424;2023-04-25T05:14:35;9.70;99.90
8676;DHT22;4375;52.486;13.424;2023-04-25T05:17:01;9.80;99.90
8676;DHT22;4375;52.486;13.424;2023-04-25T05:19:30;9.70;99.90
8676;DHT22;4375;52.486;13.424;2023-04-25T05:21:55;9.80;99.90
8676;DHT22;4375;52.486;13.424;2023-04-25T05:24:21;9.80;99.90
8676;DHT22;4375;52.486;13.424;2023-04-25T05:26:47;9.70;99.90
8676;DHT22;4375;52.486;13.424;2023-04-25T05:29:12;9.60;99.90
8676;DHT22;4375;52.486;13.424;2023-04-25T05:31:38;9.60;99.90
8676;DHT22;4375;52.486;13.424;2023-04-25T05:34:03;9.60;99.90
8676;DHT22;4375;52.486;13.424;2023-04-25T05:36:29;9.80;99.90
8676;DHT22;4375;52.486;13.424;2023-04-25T05:38:56;9.70;99.90
8676;DHT22;4375;52.486;13.424;2023-04-25T05:41:21;9.80;99.90
8676;DHT22;4375;52.486;13.424;2023-04-25T05:43:47;9.70;99.90
8676;DHT22;4375;52.486;13.424;2023-04-25T05:46:15;9.70;99.90
8676;DHT22;4375;52.486;13.424;2023-04-25T05:48:42;9.70;99.90
8676;DHT22;4375;52.486;13.424;2023-04-25T05:51:08;9.80;99.90
8676;DHT22;4375;52.486;13.424;2023-04-25T05:53:34;9.90;99.90
8676;DHT22;4375;52.486;13.424;2023-04-25T05:56:00;10.00;99.90
8676;DHT22;4375;52.486;13.424;2023-04-25T05:58:26;9.90;99.90
8676;DHT22;4375;52.486;13.424;2023-04-25T06:00:52;9.90;99.90
8676;DHT22;4375;52.486;13.424;2023-04-25T06:03:17;10.00;99.90
8676;DHT22;4375;52.486;13.424;2023-04-25T06:05:43;9.90;99.90
8676;DHT22;4375;52.486;13.424;2023-04-25T06:08:09;10.10;99.90
8676;DHT22;4375;52.486;13.424;2023-04-25T06:10:36;10.10;99.90
8676;DHT22;4375;52.486;13.424;2023-04-25T06:13:02;10.10;99.90
8676;DHT22;4375;52.486;13.424;2023-04-25T06:15:28;10.20;99.90
8676;DHT22;4375;52.486;13.424;2023-04-25T06:17:54;10.10;99.90
8676;DHT22;4375;52.486;13.424;2023-04-25T06:20:19;10.00;99.90
8676;DHT22;4375;52.486;13.424;2023-04-25T06:22:48;10.00;99.90
8676;DHT22;4375;52.486;13.424;2023-04-25T06:25:15;10.10;99.90
8676;DHT22;4375;52.486;13.424;2023-04-25T06:27:40;10.20;99.90
8676;DHT22;4375;52.486;13.424;2023-04-25T06:30:06;10.00;99.90
8676;DHT22;4375;52.486;13.424;2023-04-25T06:32:32;10.10;99.90
8676;DHT22;4375;52.486;13.424;2023-04-25T06:34:59;10.20;99.90
8676;DHT22;4375;52.486;13.424;2023-04-25T06:37:25;10.10;99.90
8676;DHT22;4375;52.486;13.424;2023-04-25T06:39:51;10.20;99.90
8676;DHT22;4375;52.486;13.424;2023-04-25T06:42:16;10.20;99.90
8676;DHT22;4375;52.486;13.424;2023-04-25T06:44:42;10.30;99.90
8676;DHT22;4375;52.486;13.424;2023-04-25T06:47:08;10.10;99.90
8676;DHT22;4375;52.486;13.424;2023-04-25T06:49:33;10.10;99.90
8676;DHT22;4375;52.486;13.424;2023-04-25T06:51:59;10.00;99.90
8676;DHT22;4375;52.486;13.424;2023-04-25T06:54:24;10.10;99.90
8676;DHT22;4375;52.486;13.424;2023-04-25T06:56:52;10.00;99.90
8676;DHT22;4375;52.486;13.424;2023-04-25T06:59:18;9.90;99.90
8676;DHT22;4375;52.486;13.424;2023-04-25T07:01:44;10.00;99.90
8676;DHT22;4375;52.486;13.424;2023-04-25T07:04:10;10.00;99.90
8676;DHT22;4375;52.486;13.424;2023-04-25T07:06:36;10.00;99.90
8676;DHT22;4375;52.486;13.424;2023-04-25T07:09:10;10.10;99.90
8676;DHT22;4375;52.486;13.424;2023-04-25T07:11:36;10.10;99.90
8676;DHT22;4375;52.486;13.424;2023-04-25T07:14:02;10.10;99.90
8676;DHT22;4375;52.486;13.424;2023-04-25T07:16:28;10.20;99.90
8676;DHT22;4375;52.486;13.424;2023-04-25T07:18:54;10.20;99.90
8676;DHT22;4375;52.486;13.424;2023-04-25T07:21:20;10.30;99.90
8676;DHT22;4375;52.486;13.424;2023-04-25T07:23:45;10.30;99.90
8676;DHT22;4375;52.486;13.424;2023-04-25T07:26:12;10.10;99.90
8676;DHT22;4375;52.486;13.424;2023-04-25T07:28:37;10.10;99.90
8676;DHT22;4375;52.486;13.424;2023-04-25T07:31:03;10.00;99.90
8676;DHT22;4375;52.486;13.424;2023-04-25T07:33:29;9.90;99.90
8676;DHT22;4375;52.486;13.424;2023-04-25T07:35:55;9.60;99.90
8676;DHT22;4375;52.486;13.424;2023-04-25T07:38:21;9.60;99.90
8676;DHT22;4375;52.486;13.424;2023-04-25T07:40:48;9.60;99.90
8676;DHT22;4375;52.486;13.424;2023-04-25T07:43:14;9.60;99.90
8676;DHT22;4375;52.486;13.424;2023-04-25T07:45:42;9.60;99.90
8676;DHT22;4375;52.486;13.424;2023-04-25T07:48:08;9.60;99.90
8676;DHT22;4375;52.486;13.424;2023-04-25T07:50:34;9.80;99.90
8676;DHT22;4375;52.486;13.424;2023-04-25T07:52:59;9.70;99.90
8676;DHT22;4375;52.486;13.424;2023-04-25T07:55:25;9.80;99.90
8676;DHT22;4375;52.486;13.424;2023-04-25T07:57:51;9.80;99.90
8676;DHT22;4375;52.486;13.424;2023-04-25T08:00:17;10.00;99.90
8676;DHT22;4375;52.486;13.424;2023-04-25T08:02:43;10.10;99.90
8676;DHT22;4375;52.486;13.424;2023-04-25T08:05:09;10.10;99.90
8676;DHT22;4375;52.486;13.424;2023-04-25T08:07:37;10.10;99.90
8676;DHT22;4375;52.486;13.424;2023-04-25T08:10:05;9.80;99.90
8676;DHT22;4375;52.486;13.424;2023-04-25T08:12:31;9.70;99.90
8676;DHT22;4375;52.486;13.424;2023-04-25T08:14:56;9.90;99.90
8676;DHT22;4375;52.486;13.424;2023-04-25T08:17:22;10.00;99.90
8676;DHT22;4375;52.486;13.424;2023-04-25T08:19:48;10.10;99.90
8676;DHT22;4375;52.486;13.424;2023-04-25T08:22:13;10.30;99.90
8676;DHT22;4375;52.486;13.424;2023-04-25T08:24:40;10.40;99.90
8676;DHT22;4375;52.486;13.424;2023-04-25T08:27:05;10.70;99.90
8676;DHT22;4375;52.486;13.424;2023-04-25T08:29:33;10.60;99.90
8676;DHT22;4375;52.486;13.424;2023-04-25T08:31:59;11.00;99.90
8676;DHT22;4375;52.486;13.424;2023-04-25T08:34:24;12.00;99.90
8676;DHT22;4375;52.486;13.424;2023-04-25T08:36:51;12.40;99.90
8676;DHT22;4375;52.486;13.424;2023-04-25T08:39:17;12.60;99.90
8676;DHT22;4375;52.486;13.424;2023-04-25T08:41:42;13.00;99.90
8676;DHT22;4375;52.486;13.424;2023-04-25T08:44:10;12.50;99.90
8676;DHT22;4375;52.486;13.424;2023-04-25T08:46:38;12.00;99.90
8676;DHT22;4375;52.486;13.424;2023-04-25T08:49:05;11.50;99.90
8676;DHT22;4375;52.486;13.424;2023-04-25T08:51:32;11.30;99.90
8676;DHT22;4375;52.486;13.424;2023-04-25T08:54:08;11.10;99.90
8676;DHT22;4375;52.486;13.424;2023-04-25T08:56:35;11.10;99.90
8676;DHT22;4375;52.486;13.424;2023-04-25T08:59:01;11.00;99.90
8676;DHT22;4375;52.486;13.424;2023-04-25T09:01:28;11.20;99.90
8676;DHT22;4375;52.486;13.424;2023-04-25T09:03:53;11.90;99.90
8676;DHT22;4375;52.486;13.424;2023-04-25T09:06:19;12.50;99.90
8676;DHT22;4375;52.486;13.424;2023-04-25T09:08:45;13.30;99.90
8676;DHT22;4375;52.486;13.424;2023-04-25T09:11:12;14.30;99.90
8676;DHT22;4375;52.486;13.424;2023-04-25T09:13:39;15.40;99.90
8676;DHT22;4375;52.486;13.424;2023-04-25T09:16:05;16.70;99.90
8676;DHT22;4375;52.486;13.424;2023-04-25T09:18:32;16.90;99.90
8676;DHT22;4375;52.486;13.424;2023-04-25T09:21:10;17.00;99.20
8676;DHT22;4375;52.486;13.424;2023-04-25T09:23:47;17.00;98.30
8676;DHT22;4375;52.486;13.424;2023-04-25T09:26:17;16.80;97.70
8676;DHT22;4375;52.486;13.424;2023-04-25T09:28:43;16.10;97.80
8676;DHT22;4375;52.486;13.424;2023-04-25T09:31:10;16.10;98.00
8676;DHT22;4375;52.486;13.424;2023-04-25T09:33:40;15.90;97.80
8676;DHT22;4375;52.486;13.424;2023-04-25T09:36:08;15.30;97.50
8676;DHT22;4375;52.486;13.424;2023-04-25T09:38:42;15.10;98.70
8676;DHT22;4375;52.486;13.424;2023-04-25T09:41:09;15.20;98.60
8676;DHT22;4375;52.486;13.424;2023-04-25T09:43:35;14.80;98.50
8676;DHT22;4375;52.486;13.424;2023-04-25T09:46:02;14.60;99.10
8676;DHT22;4375;52.486;13.424;2023-04-25T09:48:29;14.30;98.90
8676;DHT22;4375;52.486;13.424;2023-04-25T09:51:08;14.10;99.60
8676;DHT22;4375;52.486;13.424;2023-04-25T09:53:37;14.00;99.70
8676;DHT22;4375;52.486;13.424;2023-04-25T09:56:06;13.70;99.90
8676;DHT22;4375;52.486;13.424;2023-04-25T09:58:33;13.60;99.90
8676;DHT22;4375;52.486;13.424;2023-04-25T10:01:03;13.50;99.90
8676;DHT22;4375;52.486;13.424;2023-04-25T10:03:34;13.50;99.90
8676;DHT22;4375;52.486;13.424;2023-04-25T10:06:02;13.50;99.60
8676;DHT22;4375;52.486;13.424;2023-04-25T10:08:32;13.20;99.90
8676;DHT22;4375;52.486;13.424;2023-04-25T10:11:04;13.30;99.80
8676;DHT22;4375;52.486;13.424;2023-04-25T10:13:30;13.20;99.90
8676;DHT22;4375;52.486;13.424;2023-04-25T10:16:01;13.50;99.90
8676;DHT22;4375;52.486;13.424;2023-04-25T10:18:28;13.60;99.10
8676;DHT22;4375;52.486;13.424;2023-04-25T10:21:00;13.50;98.60
8676;DHT22;4375;52.486;13.424;2023-04-25T10:23:27;13.50;98.10
8676;DHT22;4375;52.486;13.424;2023-04-25T10:25:54;13.70;97.70
8676;DHT22;4375;52.486;13.424;2023-04-25T10:28:20;13.50;97.70
8676;DHT22;4375;52.486;13.424;2023-04-25T10:33:39;12.70;96.70
8676;DHT22;4375;52.486;13.424;2023-04-25T10:36:34;12.60;97.30
8676;DHT22;4375;52.486;13.424;2023-04-25T10:39:06;12.60;97.80
8676;DHT22;4375;52.486;13.424;2023-04-25T10:41:55;12.70;97.70
8676;DHT22;4375;52.486;13.424;2023-04-25T10:44:21;12.70;98.10
8676;DHT22;4375;52.486;13.424;2023-04-25T10:46:47;12.70;98.00
8676;DHT22;4375;52.486;13.424;2023-04-25T10:49:32;12.50;98.50
8676;DHT22;4375;52.486;13.424;2023-04-25T10:54:47;12.50;99.00
8676;DHT22;4375;52.486;13.424;2023-04-25T10:57:38;12.60;99.20
8676;DHT22;4375;52.486;13.424;2023-04-25T11:00:16;12.30;98.30
8676;DHT22;4375;52.486;13.424;2023-04-25T11:02:53;12.30;98.40
8676;DHT22;4375;52.486;13.424;2023-04-25T11:07:52;12.40;98.50
8676;DHT22;4375;52.486;13.424;2023-04-25T11:10:19;12.70;98.40
8676;DHT22;4375;52.486;13.424;2023-04-25T11:12:46;13.00;98.10
8676;DHT22;4375;52.486;13.424;2023-04-25T11:15:16;13.00;98.00
8676;DHT22;4375;52.486;13.424;2023-04-25T11:17:41;13.00;98.00
8676;DHT22;4375;52.486;13.424;2023-04-25T11:20:08;13.00;98.10
8676;DHT22;4375;52.486;13.424;2023-04-25T11:22:38;12.80;97.60
8676;DHT22;4375;52.486;13.424;2023-04-25T11:25:07;12.50;97.10
8676;DHT22;4375;52.486;13.424;2023-04-25T11:27:33;12.50;97.50
8676;DHT22;4375;52.486;13.424;2023-04-25T11:29:59;12.40;98.00
8676;DHT22;4375;52.486;13.424;2023-04-25T11:32:24;12.00;98.60
8676;DHT22;4375;52.486;13.424;2023-04-25T11:34:50;11.80;99.10
8676;DHT22;4375;52.486;13.424;2023-04-25T11:37:17;11.60;98.80
8676;DHT22;4375;52.486;13.424;2023-04-25T11:39:44;11.40;98.00
8676;DHT22;4375;52.486;13.424;2023-04-25T11:42:11;11.30;96.80
8676;DHT22;4375;52.486;13.424;2023-04-25T11:44:38;11.40;96.50
8676;DHT22;4375;52.486;13.424;2023-04-25T11:47:04;11.40;95.90
8676;DHT22;4375;52.486;13.424;2023-04-25T11:49:31;11.60;95.80
8676;DHT22;4375;52.486;13.424;2023-04-25T11:51:57;11.60;95.80
8676;DHT22;4375;52.486;13.424;2023-04-25T11:54:23;11.70;95.10
8676;DHT22;4375;52.486;13.424;2023-04-25T11:56:48;11.80;94.80
8676;DHT22;4375;52.486;13.424;2023-04-25T11:59:14;11.80;94.60
8676;DHT22;4375;52.486;13.424;2023-04-25T12:01:48;11.80;94.80
8676;DHT22;4375;52.486;13.424;2023-04-25T12:04:24;11.90;94.30
8676;DHT22;4375;52.486;13.424;2023-04-25T12:06:52;12.20;94.50
8676;DHT22;4375;52.486;13.424;2023-04-25T12:09:28;12.20;94.30
8676;DHT22;4375;52.486;13.424;2023-04-25T12:11:55;12.30;94.70
8676;DHT22;4375;52.486;13.424;2023-04-25T12:14:27;12.40;95.10
8676;DHT22;4375;52.486;13.424;2023-04-25T12:16:58;12.40;94.90
8676;DHT22;4375;52.486;13.424;2023-04-25T12:19:24;12.40;95.50
8676;DHT22;4375;52.486;13.424;2023-04-25T12:21:51;12.50;95.40
8676;DHT22;4375;52.486;13.424;2023-04-25T12:24:21;12.40;95.50
8676;DHT22;4375;52.486;13.424;2023-04-25T12:26:58;12.50;95.00
8676;DHT22;4375;52.486;13.424;2023-04-25T12:29:25;12.60;94.80
8676;DHT22;4375;52.486;13.424;2023-04-25T12:31:52;12.50;93.60
8676;DHT22;4375;52.486;13.424;2023-04-25T12:34:19;12.40;93.60
8676;DHT22;4375;52.486;13.424;2023-04-25T12:36:45;12.70;93.70
8676;DHT22;4375;52.486;13.424;2023-04-25T12:39:18;12.80;92.40
8676;DHT22;4375;52.486;13.424;2023-04-25T12:41:45;13.00;92.30
8676;DHT22;4375;52.486;13.424;2023-04-25T12:44:12;13.10;92.00
8676;DHT22;4375;52.486;13.424;2023-04-25T12:46:38;13.20;92.10
8676;DHT22;4375;52.486;13.424;2023-04-25T12:49:04;13.00;92.50
8676;DHT22;4375;52.486;13.424;2023-04-25T12:51:31;13.20;92.50
8676;DHT22;4375;52.486;13.424;2023-04-25T12:54:01;13.20;92.60
8676;DHT22;4375;52.486;13.424;2023-04-25T12:56:28;12.90;92.80
8676;DHT22;4375;52.486;13.424;2023-04-25T12:58:54;12.80;93.50
8676;DHT22;4375;52.486;13.424;2023-04-25T13:01:24;12.40;93.50
8676;DHT22;4375;52.486;13.424;2023-04-25T13:03:50;12.40;92.60
8676;DHT22;4375;52.486;13.424;2023-04-25T13:06:16;12.20;92.80
8676;DHT22;4375;52.486;13.424;2023-04-25T13:08:42;12.20;93.10
8676;DHT22;4375;52.486;13.424;2023-04-25T13:11:08;12.40;93.10
8676;DHT22;4375;52.486;13.424;2023-04-25T13:13:34;12.30;93.70
8676;DHT22;4375;52.486;13.424;2023-04-25T13:16:01;12.30;94.00
8676;DHT22;4375;52.486;13.424;2023-04-25T13:18:28;12.50;94.00
8676;DHT22;4375;52.486;13.424;2023-04-25T13:20:53;12.30;94.10
8676;DHT22;4375;52.486;13.424;2023-04-25T13:23:19;12.20;93.90
8676;DHT22;4375;52.486;13.424;2023-04-25T13:25:46;12.20;93.40
8676;DHT22;4375;52.486;13.424;2023-04-25T13:30:45;11.90;93.30
8676;DHT22;4375;52.486;13.424;2023-04-25T13:33:11;12.10;93.60
8676;DHT22;4375;52.486;13.424;2023-04-25T13:35:38;12.10;94.10
8676;DHT22;4375;52.486;13.424;2023-04-25T13:38:26;12.10;94.10
8676;DHT22;4375;52.486;13.424;2023-04-25T13:41:24;12.20;94.50
8676;DHT22;4375;52.486;13.424;2023-04-25T13:43:55;12.20;94.70
8676;DHT22;4375;52.486;13.424;2023-04-25T13:46:24;12.40;95.10
8676;DHT22;4375;52.486;13.424;2023-04-25T13:48:50;12.20;94.80
8676;DHT22;4375;52.486;13.424;2023-04-25T13:51:40;12.20;95.10
8676;DHT22;4375;52.486;13.424;2023-04-25T13:54:08;12.40;94.70
8676;DHT22;4375;52.486;13.424;2023-04-25T13:56:34;12.40;94.60
8676;DHT22;4375;52.486;13.424;2023-04-25T13:59:00;12.50;94.80
8676;DHT22;4375;52.486;13.424;2023-04-25T14:01:28;12.50;94.70
8676;DHT22;4375;52.486;13.424;2023-04-25T14:03:57;12.50;95.20
8676;DHT22;4375;52.486;13.424;2023-04-25T14:06:22;12.40;94.80
8676;DHT22;4375;52.486;13.424;2023-04-25T14:08:50;12.40;94.90
8676;DHT22;4375;52.486;13.424;2023-04-25T14:11:16;12.20;95.60
8676;DHT22;4375;52.486;13.424;2023-04-25T14:13:44;12.10;95.90
8676;DHT22;4375;52.486;13.424;2023-04-25T14:16:09;11.80;95.90
8676;DHT22;4375;52.486;13.424;2023-04-25T14:18:35;11.90;96.30
8676;DHT22;4375;52.486;13.424;2023-04-25T14:21:01;11.80;96.30
8676;DHT22;4375;52.486;13.424;2023-04-25T14:23:26;11.80;96.00
8676;DHT22;4375;52.486;13.424;2023-04-25T14:25:52;11.50;95.30
8676;DHT22;4375;52.486;13.424;2023-04-25T14:28:18;11.50;95.70
8676;DHT22;4375;52.486;13.424;2023-04-25T14:30:45;11.50;95.50
8676;DHT22;4375;52.486;13.424;2023-04-25T14:33:10;11.50;95.50
8676;DHT22;4375;52.486;13.424;2023-04-25T14:35:48;11.60;95.90
8676;DHT22;4375;52.486;13.424;2023-04-25T14:38:14;11.70;95.70
8676;DHT22;4375;52.486;13.424;2023-04-25T14:40:49;11.60;95.00
8676;DHT22;4375;52.486;13.424;2023-04-25T14:43:31;11.70;94.90
8676;DHT22;4375;52.486;13.424;2023-04-25T14:46:00;11.90;95.20
8676;DHT22;4375;52.486;13.424;2023-04-25T14:48:29;11.80;95.20
8676;DHT22;4375;52.486;13.424;2023-04-25T14:50:54;11.90;95.30
8676;DHT22;4375;52.486;13.424;2023-04-25T14:53:22;12.00;95.80
8676;DHT22;4375;52.486;13.424;2023-04-25T14:55:47;12.10;95.80
8676;DHT22;4375;52.486;13.424;2023-04-25T14:58:14;11.90;96.00
8676;DHT22;4375;52.486;13.424;2023-04-25T15:00:42;11.80;96.30
8676;DHT22;4375;52.486;13.424;2023-04-25T15:03:09;11.80;96.90
8676;DHT22;4375;52.486;13.424;2023-04-25T15:05:37;11.80;96.70
8676;DHT22;4375;52.486;13.424;2023-04-25T15:08:02;11.70;96.80
8676;DHT22;4375;52.486;13.424;2023-04-25T15:10:37;11.60;97.10
8676;DHT22;4375;52.486;13.424;2023-04-25T15:13:03;11.40;97.40
8676;DHT22;4375;52.486;13.424;2023-04-25T15:15:29;11.20;98.60
8676;DHT22;4375;52.486;13.424;2023-04-25T15:17:55;11.20;98.60
8676;DHT22;4375;52.486;13.424;2023-04-25T15:20:22;11.20;98.70
8676;DHT22;4375;52.486;13.424;2023-04-25T15:22:48;11.30;99.20
8676;DHT22;4375;52.486;13.424;2023-04-25T15:25:15;11.40;99.20
8676;DHT22;4375;52.486;13.424;2023-04-25T15:27:43;11.40;98.90
8676;DHT22;4375;52.486;13.424;2023-04-25T15:30:11;11.30;98.60
8676;DHT22;4375;52.486;13.424;2023-04-25T15:32:38;11.40;98.30
8676;DHT22;4375;52.486;13.424;2023-04-25T15:35:05;11.30;98.00
8676;DHT22;4375;52.486;13.424;2023-04-25T15:37:32;11.40;97.90
8676;DHT22;4375;52.486;13.424;2023-04-25T15:40:07;11.40;97.90
8676;DHT22;4375;52.486;13.424;2023-04-25T15:42:36;11.30;97.40
8676;DHT22;4375;52.486;13.424;2023-04-25T15:45:07;11.40;97.20
8676;DHT22;4375;52.486;13.424;2023-04-25T15:47:39;11.30;97.30
8676;DHT22;4375;52.486;13.424;2023-04-25T15:50:07;11.10;97.50
8676;DHT22;4375;52.486;13.424;2023-04-25T15:52:37;11.10;98.10
8676;DHT22;4375;52.486;13.424;2023-04-25T15:55:06;11.00;97.80
8676;DHT22;4375;52.486;13.424;2023-04-25T15:57:33;10.90;98.10
8676;DHT22;4375;52.486;13.424;2023-04-25T16:00:09;10.80;98.40
8676;DHT22;4375;52.486;13.424;2023-04-25T16:02:39;10.70;98.80